Bay Sprit I I — WDE9083 — position and weather

sailwx.info

Track history (hours):
 
Tides and Currents Weather Stations Pressure Air Temp Water Temp Dewpoint Dewpoint Depression Visibility Wind Speed Wind Dir Waves Ship Positions

Bay Sprit I I

Owner: The Florida Aqurium, Brandon, FL. More information available from US FCC via Universal Licensing System and Coast Guard Vessel Documentation Center.

Last reported at 2018-Apr-22 19:46 UTC. Time now 2018-Apr-22 22:07 UTC.
Position N 27°57' W 082°27'.

Length 22 m.

Type: Passenger vessel. MMSI: 367413230.

Date/timePositionNaut miles runAvg speedWind from/ knotsBaromVisibWave heightAir tempDewpointWater temp
2018-Apr-22 19:46N 27°57' W 082°27'1 4.3
2018-Apr-22 19:30N 27°55' W 082°27'3 5.1
2018-Apr-22 19:00N 27°53' W 082°28'4 7.1
2018-Apr-22 18:30N 27°57' W 082°27'1 2.7
2018-Apr-22 18:00N 27°55' W 082°27'2 4.6
2018-Apr-22 17:29N 27°53' W 082°28'4 7.6
2018-Apr-22 17:00N 27°57' W 082°27'0 0.1
2018-Apr-22 16:29N 27°57' W 082°27'0 0.0
2018-Apr-22 15:59N 27°57' W 082°27'0 0.0
2018-Apr-22 15:29N 27°57' W 082°27'0 0.0
2018-Apr-22 14:59N 27°57' W 082°27'0 0.0
2018-Apr-21 19:47N 27°57' W 082°27'1 4.4
2018-Apr-21 19:29N 27°55' W 082°27'3 6.2
2018-Apr-21 19:00N 27°52' W 082°27'4 8.2
2018-Apr-21 18:29N 27°57' W 082°27'1 2.5
2018-Apr-21 18:00N 27°55' W 082°27'2 3.2
2018-Apr-21 17:28N 27°54' W 082°27'3 5.9
2018-Apr-21 16:59N 27°57' W 082°27'0 0.0
2018-Apr-21 16:29N 27°57' W 082°27'0 0.0
2018-Apr-21 15:59N 27°57' W 082°27'0 0.0
2018-Apr-21 15:29N 27°57' W 082°27'0 0.0
2018-Apr-21 14:59N 27°57' W 082°27'0 0.0
2018-Apr-21 14:29N 27°57' W 082°27'0 0.0
2018-Apr-21 13:59N 27°57' W 082°27'0 0.0
2018-Apr-21 13:29N 27°57' W 082°27'0 0.0
2018-Apr-20 19:45N 27°57' W 082°27'1 4.1
2018-Apr-20 19:30N 27°56' W 082°27'1 2.8
2018-Apr-20 19:00N 27°54' W 082°27'2 4.6
2018-Apr-20 18:29N 27°57' W 082°27'1 2.2
2018-Apr-20 18:00N 27°56' W 082°27'2 3.2
2018-Apr-20 17:25N 27°54' W 082°27'3 6.4
2018-Apr-20 16:58N 27°57' W 082°27'0 0.0
2018-Apr-20 16:28N 27°57' W 082°27'0 0.0
2018-Apr-20 15:58N 27°57' W 082°27'0 0.0
2018-Apr-20 15:28N 27°57' W 082°27'0 0.0
2018-Apr-20 14:58N 27°57' W 082°27'0 0.0
2018-Apr-20 14:28N 27°57' W 082°27'0 0.0
2018-Apr-20 13:58N 27°57' W 082°27'0 0.0
2018-Apr-20 13:28N 27°57' W 082°27'0 0.0
2018-Apr-20 12:58N 27°57' W 082°27'0 0.0
2018-Apr-20 12:28N 27°57' W 082°27'0 0.0
2018-Apr-19 19:47N 27°57' W 082°27'1 4.0
2018-Apr-19 19:27N 27°55' W 082°27'2 3.8
2018-Apr-19 18:58N 27°53' W 082°27'3 6.6
2018-Apr-19 18:29N 27°57' W 082°27'2 3.2
2018-Apr-19 18:00N 27°55' W 082°27'2 4.8
2018-Apr-19 17:30N 27°53' W 082°27'4 7.5
2018-Apr-19 16:59N 27°57' W 082°27'0 0.0
2018-Apr-19 16:29N 27°57' W 082°27'0 0.0
2018-Apr-19 15:59N 27°57' W 082°27'0 0.0
2018-Apr-19 15:29N 27°57' W 082°27'0 0.0
2018-Apr-19 14:59N 27°57' W 082°27'0 0.0
2018-Apr-19 14:29N 27°57' W 082°27'0 0.0
2018-Apr-19 13:59N 27°57' W 082°27'0 0.0
2018-Apr-19 00:45N 27°57' W 082°27'1 4.3
2018-Apr-19 00:30N 27°56' W 082°27'2 3.5
2018-Apr-19 00:01N 27°54' W 082°27'3 5.1
2018-Apr-18 23:28N 27°57' W 082°27'0 0.0
2018-Apr-18 22:58N 27°57' W 082°27'0 0.0
2018-Apr-18 22:28N 27°57' W 082°27'0 0.0
2018-Apr-18 21:58N 27°57' W 082°27'0 0.0
2018-Apr-18 21:28N 27°57' W 082°27'0 0.0
2018-Apr-18 20:58N 27°57' W 082°27'0 0.0
2018-Apr-18 20:28N 27°57' W 082°27'0 0.0
2018-Apr-18 19:58N 27°57' W 082°27'2 3.2
2018-Apr-18 19:30N 27°55' W 082°27'1 1.1
2018-Apr-18 19:00N 27°55' W 082°27'2 3.9
2018-Apr-18 18:29N 27°57' W 082°27'1 2.7
2018-Apr-18 17:59N 27°55' W 082°27'2 3.9
2018-Apr-18 17:28N 27°53' W 082°26'3 7.3
2018-Apr-18 17:00N 27°57' W 082°27'0 0.0
2018-Apr-18 16:30N 27°57' W 082°27'0 0.0
2018-Apr-18 16:00N 27°57' W 082°27'0 0.0
2018-Apr-18 15:30N 27°57' W 082°27'1 1.7
2018-Apr-18 14:58N 27°56' W 082°27'0 0.0
2018-Apr-18 14:28N 27°56' W 082°27'1 0.0
2018-Apr-17 19:56N 27°57' W 082°27'2 4.2
2018-Apr-17 19:30N 27°55' W 082°27'1 2.2
2018-Apr-17 19:00N 27°54' W 082°27'3 5.9
2018-Apr-17 18:30N 27°57' W 082°27'1 2.7
2018-Apr-17 18:00N 27°55' W 082°27'2 4.3
2018-Apr-17 17:27N 27°53' W 082°27'4 7.9
2018-Apr-17 16:58N 27°57' W 082°27'0 0.0
2018-Apr-16 18:16N 27°57' W 082°27'1 3.9
2018-Apr-16 18:01N 27°56' W 082°27'3 5.7
2018-Apr-16 17:27N 27°52' W 082°27'4 9.4
2018-Apr-16 17:00N 27°56' W 082°27'0 0.2
2018-Apr-16 16:29N 27°57' W 082°27'0 0.0
2018-Apr-14 19:53N 27°57' W 082°27'2 4.2
2018-Apr-14 19:30N 27°55' W 082°27'2 4.5
2018-Apr-14 18:57N 27°53' W 082°28'4 8.5
2018-Apr-14 18:29N 27°57' W 082°27'1 1.6
2018-Apr-14 18:01N 27°56' W 082°27'2 3.3
2018-Apr-14 17:27N 27°54' W 082°27'3 5.5
2018-Apr-14 16:58N 27°57' W 082°27'0 0.0
2018-Apr-14 16:28N 27°57' W 082°27'0 0.0
2018-Apr-13 21:18N 27°57' W 082°27'1 4.3
2018-Apr-13 21:00N 27°55' W 082°27'0 0.1
2018-Apr-13 20:30N 27°55' W 082°27'1 2.5
2018-Apr-13 20:00N 27°57' W 082°27'1 2.7
2018-Apr-13 19:30N 27°55' W 082°27'1 2.7
2018-Apr-13 19:00N 27°54' W 082°27'3 4.8
2018-Apr-13 18:28N 27°57' W 082°27'2 3.5
2018-Apr-13 18:00N 27°55' W 082°27'2 3.5
2018-Apr-13 17:30N 27°53' W 082°26'3 6.7
2018-Apr-13 17:00N 27°57' W 082°27'0 0.1
2018-Apr-13 16:28N 27°57' W 082°27'0 0.0
2018-Apr-12 19:49N 27°57' W 082°27'  
Track history (hours):
 
Tides and Currents Weather Stations Pressure Air Temp Water Temp Dewpoint Dewpoint Depression Visibility Wind Speed Wind Dir Waves Ship Positions

Bay Sprit I I

Owner: The Florida Aqurium, Brandon, FL. More information available from US FCC via Universal Licensing System and Coast Guard Vessel Documentation Center.

Last reported at 2018-Apr-22 19:46 UTC. Time now 2018-Apr-22 22:07 UTC.
Position N 27°57' W 082°27'.

Length 22 m.

Type: Passenger vessel. MMSI: 367413230.

Date/timePositionNaut miles runAvg speedWind from/ knotsBaromVisibWave heightAir tempDewpointWater temp
2018-Apr-22 19:46N 27°57' W 082°27'1 4.3
2018-Apr-22 19:30N 27°55' W 082°27'3 5.1
2018-Apr-22 19:00N 27°53' W 082°28'4 7.1
2018-Apr-22 18:30N 27°57' W 082°27'1 2.7
2018-Apr-22 18:00N 27°55' W 082°27'2 4.6
2018-Apr-22 17:29N 27°53' W 082°28'4 7.6
2018-Apr-22 17:00N 27°57' W 082°27'0 0.1
2018-Apr-22 16:29N 27°57' W 082°27'0 0.0
2018-Apr-22 15:59N 27°57' W 082°27'0 0.0
2018-Apr-22 15:29N 27°57' W 082°27'0 0.0
2018-Apr-22 14:59N 27°57' W 082°27'0 0.0
2018-Apr-21 19:47N 27°57' W 082°27'1 4.4
2018-Apr-21 19:29N 27°55' W 082°27'3 6.2
2018-Apr-21 19:00N 27°52' W 082°27'4 8.2
2018-Apr-21 18:29N 27°57' W 082°27'1 2.5
2018-Apr-21 18:00N 27°55' W 082°27'2 3.2
2018-Apr-21 17:28N 27°54' W 082°27'3 5.9
2018-Apr-21 16:59N 27°57' W 082°27'0 0.0
2018-Apr-21 16:29N 27°57' W 082°27'0 0.0
2018-Apr-21 15:59N 27°57' W 082°27'0 0.0
2018-Apr-21 15:29N 27°57' W 082°27'0 0.0
2018-Apr-21 14:59N 27°57' W 082°27'0 0.0
2018-Apr-21 14:29N 27°57' W 082°27'0 0.0
2018-Apr-21 13:59N 27°57' W 082°27'0 0.0
2018-Apr-21 13:29N 27°57' W 082°27'0 0.0
2018-Apr-20 19:45N 27°57' W 082°27'1 4.1
2018-Apr-20 19:30N 27°56' W 082°27'1 2.8
2018-Apr-20 19:00N 27°54' W 082°27'2 4.6
2018-Apr-20 18:29N 27°57' W 082°27'1 2.2
2018-Apr-20 18:00N 27°56' W 082°27'2 3.2
2018-Apr-20 17:25N 27°54' W 082°27'3 6.4
2018-Apr-20 16:58N 27°57' W 082°27'0 0.0
2018-Apr-20 16:28N 27°57' W 082°27'0 0.0
2018-Apr-20 15:58N 27°57' W 082°27'0 0.0
2018-Apr-20 15:28N 27°57' W 082°27'0 0.0
2018-Apr-20 14:58N 27°57' W 082°27'0 0.0
2018-Apr-20 14:28N 27°57' W 082°27'0 0.0
2018-Apr-20 13:58N 27°57' W 082°27'0 0.0
2018-Apr-20 13:28N 27°57' W 082°27'0 0.0
2018-Apr-20 12:58N 27°57' W 082°27'0 0.0
2018-Apr-20 12:28N 27°57' W 082°27'0 0.0
2018-Apr-19 19:47N 27°57' W 082°27'1 4.0
2018-Apr-19 19:27N 27°55' W 082°27'2 3.8
2018-Apr-19 18:58N 27°53' W 082°27'3 6.6
2018-Apr-19 18:29N 27°57' W 082°27'2 3.2
2018-Apr-19 18:00N 27°55' W 082°27'2 4.8
2018-Apr-19 17:30N 27°53' W 082°27'4 7.5
2018-Apr-19 16:59N 27°57' W 082°27'0 0.0
2018-Apr-19 16:29N 27°57' W 082°27'0 0.0
2018-Apr-19 15:59N 27°57' W 082°27'0 0.0
2018-Apr-19 15:29N 27°57' W 082°27'0 0.0
2018-Apr-19 14:59N 27°57' W 082°27'0 0.0
2018-Apr-19 14:29N 27°57' W 082°27'0 0.0
2018-Apr-19 13:59N 27°57' W 082°27'0 0.0
2018-Apr-19 00:45N 27°57' W 082°27'1 4.3
2018-Apr-19 00:30N 27°56' W 082°27'2 3.5
2018-Apr-19 00:01N 27°54' W 082°27'3 5.1
2018-Apr-18 23:28N 27°57' W 082°27'0 0.0
2018-Apr-18 22:58N 27°57' W 082°27'0 0.0
2018-Apr-18 22:28N 27°57' W 082°27'0 0.0
2018-Apr-18 21:58N 27°57' W 082°27'0 0.0
2018-Apr-18 21:28N 27°57' W 082°27'0 0.0
2018-Apr-18 20:58N 27°57' W 082°27'0 0.0
2018-Apr-18 20:28N 27°57' W 082°27'0 0.0
2018-Apr-18 19:58N 27°57' W 082°27'2 3.2
2018-Apr-18 19:30N 27°55' W 082°27'1 1.1
2018-Apr-18 19:00N 27°55' W 082°27'2 3.9
2018-Apr-18 18:29N 27°57' W 082°27'1 2.7
2018-Apr-18 17:59N 27°55' W 082°27'2 3.9
2018-Apr-18 17:28N 27°53' W 082°26'3 7.3
2018-Apr-18 17:00N 27°57' W 082°27'0 0.0
2018-Apr-18 16:30N 27°57' W 082°27'0 0.0
2018-Apr-18 16:00N 27°57' W 082°27'0 0.0
2018-Apr-18 15:30N 27°57' W 082°27'1 1.7
2018-Apr-18 14:58N 27°56' W 082°27'0 0.0
2018-Apr-18 14:28N 27°56' W 082°27'1 0.0
2018-Apr-17 19:56N 27°57' W 082°27'2 4.2
2018-Apr-17 19:30N 27°55' W 082°27'1 2.2
2018-Apr-17 19:00N 27°54' W 082°27'3 5.9
2018-Apr-17 18:30N 27°57' W 082°27'1 2.7
2018-Apr-17 18:00N 27°55' W 082°27'2 4.3
2018-Apr-17 17:27N 27°53' W 082°27'4 7.9
2018-Apr-17 16:58N 27°57' W 082°27'0 0.0
2018-Apr-16 18:16N 27°57' W 082°27'1 3.9
2018-Apr-16 18:01N 27°56' W 082°27'3 5.7
2018-Apr-16 17:27N 27°52' W 082°27'4 9.4
2018-Apr-16 17:00N 27°56' W 082°27'0 0.2
2018-Apr-16 16:29N 27°57' W 082°27'0 0.0
2018-Apr-14 19:53N 27°57' W 082°27'2 4.2
2018-Apr-14 19:30N 27°55' W 082°27'2 4.5
2018-Apr-14 18:57N 27°53' W 082°28'4 8.5
2018-Apr-14 18:29N 27°57' W 082°27'1 1.6
2018-Apr-14 18:01N 27°56' W 082°27'2 3.3
2018-Apr-14 17:27N 27°54' W 082°27'3 5.5
2018-Apr-14 16:58N 27°57' W 082°27'0 0.0
2018-Apr-14 16:28N 27°57' W 082°27'0 0.0
2018-Apr-13 21:18N 27°57' W 082°27'1 4.3
2018-Apr-13 21:00N 27°55' W 082°27'0 0.1
2018-Apr-13 20:30N 27°55' W 082°27'1 2.5
2018-Apr-13 20:00N 27°57' W 082°27'1 2.7
2018-Apr-13 19:30N 27°55' W 082°27'1 2.7
2018-Apr-13 19:00N 27°54' W 082°27'3 4.8
2018-Apr-13 18:28N 27°57' W 082°27'2 3.5
2018-Apr-13 18:00N 27°55' W 082°27'2 3.5
2018-Apr-13 17:30N 27°53' W 082°26'3 6.7
2018-Apr-13 17:00N 27°57' W 082°27'0 0.1
2018-Apr-13 16:28N 27°57' W 082°27'0 0.0
2018-Apr-12 19:49N 27°57' W 082°27'  

Dump ship's entire track history